Time;durP1;ratioP1;P1;durP2;ratioP2;P2;SDS_P1;SDS_P2;PMS_P1;PMS_P2;Temp;Humidity;BMP_temperature;BMP_pressure;BME280_temperature;BME280_humidity;BME280_pressure;Samples;Min_cycle;Max_cycle;Signal;HPM_P1;HPM_P2
2022/05/28 00:00:41;;;;;;;10.93;1.88;;;;;;;10.14;69.80;101919.84;4970918;28;20031;-75
2022/05/28 00:03:07;;;;;;;8.57;1.92;;;;;;;10.14;69.86;101912.88;4971778;28;20468;-75
2022/05/28 00:05:32;;;;;;;7.78;1.75;;;;;;;10.13;69.61;101902.63;4949328;28;20042;-75
2022/05/28 00:07:58;;;;;;;6.25;2.10;;;;;;;10.13;69.96;101910.41;4967815;28;20038;-73
2022/05/28 00:10:24;;;;;;;9.05;1.95;;;;;;;10.10;69.88;101900.31;4946516;28;20508;-75
2022/05/28 00:12:50;;;;;;;8.38;2.17;;;;;;;10.10;70.18;101908.09;4964653;28;20076;-75
2022/05/28 00:15:15;;;;;;;10.27;1.83;;;;;;;10.04;70.44;101903.38;4949203;28;20487;-75
2022/05/28 00:17:41;;;;;;;12.15;2.67;;;;;;;10.05;70.30;101899.84;4965273;28;20031;-74
2022/05/28 00:20:07;;;;;;;10.63;2.00;;;;;;;9.99;70.97;101895.19;4965968;28;20381;-75
2022/05/28 00:22:43;;;;;;;10.43;1.52;;;;;;;9.94;70.95;101901.56;4948761;28;20384;-74
2022/05/28 00:25:12;;;;;;;11.82;2.30;;;;;;;9.98;70.75;101904.69;4965232;28;20052;-74
2022/05/28 00:27:38;;;;;;;12.15;1.77;;;;;;;9.92;71.09;101900.03;4966504;28;20042;-75
2022/05/28 00:30:05;;;;;;;8.70;1.90;;;;;;;9.90;71.59;101889.78;4951887;28;20361;-75
2022/05/28 00:32:30;;;;;;;9.93;1.60;;;;;;;9.91;71.64;101894.03;4964781;28;20031;-75
2022/05/28 00:34:56;;;;;;;11.20;2.15;;;;;;;9.94;71.03;101895.53;4968814;28;20054;-74
2022/05/28 00:37:22;;;;;;;11.73;2.28;;;;;;;9.90;71.27;101892.38;4960673;28;20038;-75
2022/05/28 00:39:48;;;;;;;11.07;2.13;;;;;;;9.90;71.47;101901.94;4965235;28;20930;-75
2022/05/28 00:42:13;;;;;;;10.07;1.98;;;;;;;9.90;71.56;101896.75;4963500;28;20094;-74
2022/05/28 00:44:40;;;;;;;12.07;2.13;;;;;;;9.87;71.81;101890.06;4946177;28;20027;-75
2022/05/28 00:47:06;;;;;;;7.82;1.60;;;;;;;9.91;71.72;101894.03;4967296;28;20039;-74
2022/05/28 00:49:32;;;;;;;9.88;1.95;;;;;;;9.90;72.01;101888.97;4961230;28;20093;-74
2022/05/28 00:52:04;;;;;;;14.60;2.03;;;;;;;10.03;71.57;101886.22;4964849;28;20063;-75
2022/05/28 00:54:37;;;;;;;7.30;1.98;;;;;;;10.02;72.02;101885.41;4958461;28;20035;-75
2022/05/28 00:57:03;;;;;;;8.43;2.03;;;;;;;10.01;72.07;101886.31;4960194;28;20133;-75
2022/05/28 00:59:30;;;;;;;9.90;1.92;;;;;;;10.02;72.53;101887.97;4952123;28;20036;-74
2022/05/28 01:02:02;;;;;;;14.27;2.83;;;;;;;10.02;72.73;101889.72;4950826;28;20109;-74
2022/05/28 01:04:36;;;;;;;11.40;1.83;;;;;;;10.08;72.77;101886.66;4965047;28;20030;-74
2022/05/28 01:07:22;;;;;;;13.88;3.17;;;;;;;10.08;72.33;101878.88;4949007;28;20035;-76
2022/05/28 01:10:15;;;;;;;14.70;2.40;;;;;;;10.08;72.84;101878.88;4973668;28;20806;-75
2022/05/28 01:13:14;;;;;;;15.68;2.58;;;;;;;10.14;71.85;101878.38;4950557;28;20035;-75
2022/05/28 01:15:48;;;;;;;16.42;2.40;;;;;;;10.23;71.80;101872.44;4964048;28;21267;-75
2022/05/28 01:18:24;;;;;;;12.07;2.70;;;;;;;10.16;71.84;101871.28;4945795;28;20042;-74
2022/05/28 01:20:54;;;;;;;11.05;2.10;;;;;;;10.15;72.34;101869.63;4964679;28;20113;-74
2022/05/28 01:23:47;;;;;;;9.57;2.22;;;;;;;10.13;72.90;101869.78;4964445;28;20050;-74
2022/05/28 01:26:18;;;;;;;12.45;2.00;;;;;;;10.12;72.63;101860.34;4961699;28;20157;-76
2022/05/28 01:28:52;;;;;;;13.02;2.00;;;;;;;10.20;71.75;101861.50;4965373;28;20035;-73
2022/05/28 01:31:20;;;;;;;12.45;2.45;;;;;;;10.23;72.00;101856.88;4964818;28;20034;-72
2022/05/28 01:33:47;;;;;;;15.15;2.75;;;;;;;10.16;72.55;101863.50;4948484;28;20138;-76
2022/05/28 01:36:16;;;;;;;12.70;2.15;;;;;;;10.12;72.81;101859.53;4965769;28;20545;-74
2022/05/28 01:38:43;;;;;;;14.77;2.58;;;;;;;10.10;72.78;101861.44;4962238;28;20038;-75
2022/05/28 01:41:11;;;;;;;12.43;3.13;;;;;;;10.07;73.20;101859.91;4929077;28;20035;-76
2022/05/28 01:43:40;;;;;;;8.25;2.05;;;;;;;10.06;72.93;101858.28;4960895;28;20050;-74
2022/05/28 01:46:06;;;;;;;11.23;2.53;;;;;;;10.06;72.60;101852.28;4946416;28;20035;-76
2022/05/28 01:48:33;;;;;;;12.85;2.40;;;;;;;10.05;73.31;101843.66;4960709;28;20122;-72
2022/05/28 01:51:01;;;;;;;14.23;2.40;;;;;;;10.08;73.05;101843.41;4944534;28;20042;-75
2022/05/28 01:56:12;;;;;;;12.50;1.90;;;;;;;10.01;73.21;101841.47;4968142;28;20058;-76
2022/05/28 01:58:38;;;;;;;9.88;1.92;;;;;;;10.03;73.34;101842.97;4960049;28;20194;-75
2022/05/28 02:01:06;;;;;;;14.68;3.78;;;;;;;10.01;73.57;101844.88;4949942;28;20502;-75
2022/05/28 02:03:34;;;;;;;7.80;2.00;;;;;;;10.06;73.31;101849.69;4947466;28;20062;-75
2022/05/28 02:05:59;;;;;;;13.85;2.33;;;;;;;10.06;73.83;101855.69;4949208;28;20031;-75
2022/05/28 02:08:28;;;;;;;15.65;2.60;;;;;;;10.03;73.95;101849.94;4948066;28;20042;-75
2022/05/28 02:11:18;;;;;;;15.52;3.20;;;;;;;10.04;74.31;101846.38;4947169;28;20070;-75
2022/05/28 02:14:00;;;;;;;11.63;2.25;;;;;;;10.03;74.05;101853.34;4947354;28;20499;-74
2022/05/28 02:17:17;;;;;;;13.00;2.75;;;;;;;10.04;74.13;101847.22;4945850;28;20046;-75
2022/05/28 02:19:56;;;;;;;12.80;2.17;;;;;;;10.02;74.41;101848.28;4897456;29;20048;-74
2022/05/28 02:22:54;;;;;;;13.35;2.92;;;;;;;10.05;73.94;101853.22;4901513;29;21288;-74
2022/05/28 02:25:24;;;;;;;8.48;2.13;;;;;;;10.07;74.45;101848.72;4953663;28;20052;-75
2022/05/28 02:27:51;;;;;;;10.23;2.28;;;;;;;10.04;74.28;101852.41;4949131;28;20510;-75
2022/05/28 02:30:17;;;;;;;10.32;2.25;;;;;;;9.99;74.28;101851.94;4945778;28;20062;-76
2022/05/28 02:32:43;;;;;;;11.00;2.80;;;;;;;9.98;74.21;101850.28;4946624;28;20466;-75
2022/05/28 02:35:11;;;;;;;13.02;2.42;;;;;;;9.92;74.48;101849.03;4962206;28;20035;-75
2022/05/28 02:37:37;;;;;;;14.20;2.85;;;;;;;9.89;74.85;101843.31;4947521;28;21828;-75
2022/05/28 02:40:03;;;;;;;16.88;3.85;;;;;;;9.87;74.82;101835.66;4948049;28;20035;-75
2022/05/28 02:42:29;;;;;;;11.00;2.45;;;;;;;9.85;75.19;101840.13;4947676;28;20031;-75
2022/05/28 02:44:54;;;;;;;13.02;2.53;;;;;;;9.85;75.27;101840.13;4957097;28;20043;-75
2022/05/28 02:47:20;;;;;;;11.77;2.40;;;;;;;9.84;75.04;101837.66;4946165;28;20097;-75
2022/05/28 02:49:45;;;;;;;11.80;2.33;;;;;;;9.80;75.58;101844.88;4943477;28;20058;-75
2022/05/28 02:52:11;;;;;;;15.57;2.75;;;;;;;9.78;75.80;101845.94;4946589;28;20591;-73
2022/05/28 02:54:37;;;;;;;16.77;2.33;;;;;;;9.76;75.96;101846.06;4962138;28;20035;-75
2022/05/28 02:57:04;;;;;;;13.98;2.28;;;;;;;9.73;76.33;101851.50;4965709;28;20062;-75
2022/05/28 02:59:31;;;;;;;12.82;2.53;;;;;;;9.71;76.09;101850.78;4949281;28;20161;-75
2022/05/28 03:01:56;;;;;;;19.55;2.53;;;;;;;9.69;76.52;101847.50;4950404;28;20039;-75
2022/05/28 03:04:22;;;;;;;7.13;2.20;;;;;;;9.65;76.57;101844.34;4949210;28;20046;-74
2022/05/28 03:06:48;;;;;;;13.57;3.42;;;;;;;9.61;76.63;101842.13;4963474;28;20508;-75
2022/05/28 03:09:15;;;;;;;16.02;2.50;;;;;;;9.57;76.84;101844.16;4966754;28;20038;-75
2022/05/28 03:11:41;;;;;;;13.60;2.75;;;;;;;9.50;77.23;101833.44;4967046;28;20101;-75
2022/05/28 03:14:06;;;;;;;8.70;2.90;;;;;;;9.46;77.89;101833.84;4962270;28;20689;-75
2022/05/28 03:16:32;;;;;;;15.20;4.00;;;;;;;9.37;77.97;101837.16;4966809;28;20027;-75
2022/05/28 03:18:58;;;;;;;13.02;3.03;;;;;;;9.34;77.84;101843.38;4951584;28;20037;-74
2022/05/28 03:21:24;;;;;;;11.50;3.63;;;;;;;9.38;78.18;101838.78;4949359;28;20026;-75
2022/05/28 03:23:49;;;;;;;16.92;3.05;;;;;;;9.31;78.38;101841.06;4962251;28;21090;-75
2022/05/28 03:26:21;;;;;;;12.18;3.08;;;;;;;9.31;78.54;101844.47;4949394;28;20034;-75
2022/05/28 03:28:49;;;;;;;11.85;2.65;;;;;;;9.25;78.83;101839.78;4965112;28;20106;-75
2022/05/28 03:31:15;;;;;;;19.55;3.05;;;;;;;9.24;78.98;101838.13;4953090;28;20050;-74
2022/05/28 03:33:41;;;;;;;12.80;2.95;;;;;;;9.24;79.21;101834.72;4944313;28;20529;-74
2022/05/28 03:36:08;;;;;;;14.63;3.38;;;;;;;9.23;79.23;101835.66;4966361;28;20082;-74
2022/05/28 03:38:34;;;;;;;8.77;2.70;;;;;;;9.14;79.34;101845.81;4962615;28;20039;-73
2022/05/28 03:41:00;;;;;;;19.15;3.97;;;;;;;9.21;79.40;101837.53;4949140;28;20035;-75
2022/05/28 03:43:26;;;;;;;12.30;2.60;;;;;;;9.12;79.62;101832.16;4962675;28;20038;-72
2022/05/28 03:45:52;;;;;;;12.20;2.90;;;;;;;9.10;79.87;101831.47;4964948;28;20489;-74
2022/05/28 03:48:17;;;;;;;14.57;2.95;;;;;;;9.10;79.94;101826.28;4950278;28;20137;-74
2022/05/28 03:50:43;;;;;;;18.88;3.90;;;;;;;9.09;79.81;101832.38;4963892;28;20035;-74
2022/05/28 03:53:09;;;;;;;10.30;3.00;;;;;;;9.05;80.32;101836.16;4965363;28;20455;-75
2022/05/28 03:55:37;;;;;;;14.75;4.20;;;;;;;9.09;80.37;101847.09;4944788;28;20043;-74
2022/05/28 03:58:03;;;;;;;13.20;2.70;;;;;;;9.04;80.67;101846.63;4968143;28;20035;-75
2022/05/28 04:00:29;;;;;;;15.07;2.35;;;;;;;9.05;81.08;101845.72;4961151;28;20023;-73
2022/05/28 04:02:54;;;;;;;15.18;3.70;;;;;;;9.05;80.79;101843.13;4951875;28;20038;-75
2022/05/28 04:05:22;;;;;;;15.35;2.78;;;;;;;9.09;80.97;101847.09;4949294;28;20042;-75
2022/05/28 04:07:48;;;;;;;13.27;2.95;;;;;;;9.11;81.41;101846.03;4968130;28;20045;-73
2022/05/28 04:10:14;;;;;;;9.52;2.85;;;;;;;9.11;81.49;101850.38;4957913;28;20035;-75
2022/05/28 04:12:40;;;;;;;15.85;3.42;;;;;;;9.13;81.96;101844.13;4962171;28;20085;-75
2022/05/28 04:15:06;;;;;;;12.57;3.05;;;;;;;9.14;82.15;101842.41;4961940;28;20038;-75
2022/05/28 04:17:31;;;;;;;18.30;3.30;;;;;;;9.20;82.24;101851.44;4953814;28;20027;-75
2022/05/28 04:19:57;;;;;;;14.55;3.60;;;;;;;9.20;81.90;101847.09;4964217;28;20443;-75
2022/05/28 04:22:23;;;;;;;13.20;3.40;;;;;;;9.18;82.31;101854.16;4951466;28;20031;-75
2022/05/28 04:24:49;;;;;;;11.88;2.65;;;;;;;9.24;82.41;101853.66;4946729;28;20578;-75
2022/05/28 04:27:14;;;;;;;12.55;3.33;;;;;;;9.23;82.27;101856.34;4947785;28;20160;-74
2022/05/28 04:29:40;;;;;;;12.40;2.80;;;;;;;9.23;82.42;101861.53;4961663;28;21651;-74
2022/05/28 04:32:06;;;;;;;14.80;3.95;;;;;;;9.24;82.84;101863.19;4950004;28;20403;-75
2022/05/28 04:34:31;;;;;;;15.50;3.13;;;;;;;9.27;82.91;101863.78;4949281;28;20161;-75
2022/05/28 04:36:57;;;;;;;17.75;3.28;;;;;;;9.34;82.99;101864.94;4964973;28;20031;-73
2022/05/28 04:39:22;;;;;;;14.30;3.15;;;;;;;9.35;83.10;101863.97;4932685;28;20073;-75
2022/05/28 04:41:48;;;;;;;16.85;3.60;;;;;;;9.44;83.17;101867.59;4945699;28;20077;-74
2022/05/28 04:44:13;;;;;;;18.17;4.53;;;;;;;9.56;83.00;101868.38;4964559;28;20051;-74
2022/05/28 04:46:38;;;;;;;28.10;4.10;;;;;;;9.63;82.79;101864.38;4945145;28;20065;-75
2022/05/28 04:49:04;;;;;;;19.33;3.45;;;;;;;9.73;82.77;101864.44;4933838;28;20050;-74
2022/05/28 04:51:30;;;;;;;16.13;3.88;;;;;;;9.72;82.92;101860.22;4945245;28;20031;-75
2022/05/28 04:53:56;;;;;;;12.35;4.40;;;;;;;9.82;83.16;101870.66;4964051;28;20376;-75
2022/05/28 04:56:21;;;;;;;18.65;5.65;;;;;;;9.91;82.69;101867.31;4945424;28;20406;-75
2022/05/28 04:58:47;;;;;;;22.25;5.05;;;;;;;9.98;82.26;101865.03;4958200;28;20637;-74
2022/05/28 05:01:15;;;;;;;16.70;3.80;;;;;;;9.97;82.48;101864.22;4948499;28;20045;-75
2022/05/28 05:03:41;;;;;;;18.05;3.55;;;;;;;10.01;82.63;101862.19;4945319;28;20038;-75
2022/05/28 05:06:06;;;;;;;20.42;4.55;;;;;;;10.10;82.15;101877.81;4948033;28;20042;-75
2022/05/28 05:08:32;;;;;;;19.33;5.35;;;;;;;10.23;82.10;101872.44;4948666;28;20048;-74
2022/05/28 05:10:57;;;;;;;20.63;3.55;;;;;;;10.33;81.71;101869.91;4944256;28;20538;-74
2022/05/28 05:13:23;;;;;;;16.23;3.65;;;;;;;10.37;81.73;101868.69;4931245;28;20047;-75
2022/05/28 05:15:49;;;;;;;10.65;3.88;;;;;;;10.47;82.11;101864.41;4963995;28;20030;-75
2022/05/28 05:18:14;;;;;;;15.13;3.20;;;;;;;10.64;81.54;101875.94;4964874;28;20125;-73
2022/05/28 05:20:40;;;;;;;23.45;3.65;;;;;;;10.83;81.26;101872.59;4965846;28;20048;-76
2022/05/28 05:23:06;;;;;;;17.58;4.45;;;;;;;10.94;81.09;101879.44;4947584;28;20039;-75
2022/05/28 05:25:32;;;;;;;16.63;3.28;;;;;;;11.05;80.39;101878.53;4963667;28;20493;-74
2022/05/28 05:27:57;;;;;;;17.65;3.20;;;;;;;11.19;79.82;101879.91;4949397;28;20030;-75
2022/05/28 05:30:23;;;;;;;20.58;3.45;;;;;;;11.32;79.73;101875.31;4948859;28;20676;-75
2022/05/28 05:32:48;;;;;;;12.25;3.10;;;;;;;11.55;79.08;101890.66;4964443;28;20070;-75
2022/05/28 05:35:14;;;;;;;12.18;4.55;;;;;;;11.69;78.19;101878.06;4948799;28;20098;-74
2022/05/28 05:37:39;;;;;;;19.02;2.95;;;;;;;11.82;77.64;101882.97;4965876;28;20051;-75
2022/05/28 05:40:06;;;;;;;10.20;2.55;;;;;;;11.94;77.65;101882.88;4946864;28;20034;-75
2022/05/28 05:42:31;;;;;;;15.77;2.83;;;;;;;12.08;77.55;101877.25;4961414;28;20035;-75
2022/05/28 05:44:57;;;;;;;12.77;2.58;;;;;;;12.41;76.66;101885.50;4947365;28;20050;-74
2022/05/28 05:47:22;;;;;;;12.85;2.60;;;;;;;12.62;74.98;101874.88;4964789;28;20049;-75
2022/05/28 05:49:50;;;;;;;14.45;2.50;;;;;;;12.87;74.04;101875.22;4963103;28;20108;-75
2022/05/28 05:52:15;;;;;;;9.77;2.60;;;;;;;13.07;72.86;101876.72;4962747;28;20057;-75
2022/05/28 05:54:41;;;;;;;17.63;2.95;;;;;;;13.33;72.18;101876.06;4950242;28;20539;-75
2022/05/28 05:57:06;;;;;;;13.88;2.58;;;;;;;13.46;71.08;101878.28;4948945;28;20495;-74
2022/05/28 05:59:32;;;;;;;15.15;2.65;;;;;;;13.49;69.75;101878.00;4947990;28;20026;-74
2022/05/28 06:01:58;;;;;;;14.27;2.85;;;;;;;13.72;69.57;101878.38;4948428;28;20085;-75
2022/05/28 06:04:23;;;;;;;14.90;2.47;;;;;;;14.01;69.23;101876.31;4948400;28;20530;-74
2022/05/28 06:06:49;;;;;;;13.75;2.20;;;;;;;14.39;68.13;101881.25;4963909;28;20053;-74
2022/05/28 06:09:15;;;;;;;12.20;1.90;;;;;;;14.71;66.88;101883.25;4965778;28;20038;-74
2022/05/28 13:09:11;;;;;;;5.18;1.23;;;;;;;20.68;34.56;101731.22;6329212;22;20038;-76
2022/05/28 13:11:44;;;;;;;9.13;1.00;;;;;;;20.77;37.30;101728.19;6095201;23;1243034;-71
2022/05/28 13:14:55;;;;;;;5.85;0.90;;;;;;;20.54;35.19;101730.38;6152148;23;20116;-69
2022/05/28 13:17:43;;;;;;;7.30;1.10;;;;;;;20.02;35.74;101728.19;6126767;23;20107;-70
2022/05/28 13:20:23;;;;;;;8.48;1.60;;;;;;;19.58;36.19;101720.66;6168176;23;20121;-70
2022/05/28 13:23:09;;;;;;;6.10;1.35;;;;;;;19.57;35.25;101719.00;6166363;23;20457;-70
2022/05/28 13:39:46;;;;;;;9.48;1.58;;;;;;;19.10;37.15;101713.47;5156079;27;24535;-75
2022/05/28 13:42:14;;;;;;;10.27;1.40;;;;;;;18.97;37.70;101719.41;5141312;27;20035;-76
2022/05/28 13:44:45;;;;;;;11.85;2.25;;;;;;;18.99;37.08;101712.16;5128760;27;20156;-75
2022/05/28 13:47:12;;;;;;;9.35;1.25;;;;;;;19.19;36.44;101711.47;5142783;27;20031;-76
2022/05/28 13:49:38;;;;;;;4.15;1.15;;;;;;;19.36;35.17;101709.38;5129746;27;20043;-76
2022/05/28 13:52:12;;;;;;;6.40;0.90;;;;;;;19.40;39.20;101707.97;5126054;27;20113;-76
2022/05/28 13:54:38;;;;;;;7.07;1.40;;;;;;;19.68;36.67;101702.69;5127295;27;20402;-76
2022/05/28 13:57:06;;;;;;;4.78;1.13;;;;;;;20.10;34.82;101702.69;5141255;27;20038;-76
2022/05/28 13:59:46;;;;;;;7.30;1.30;;;;;;;20.26;32.46;101688.38;5141425;27;20646;-75
2022/05/28 14:02:18;;;;;;;6.38;1.23;;;;;;;19.68;34.87;101704.50;5120852;27;20038;-76
2022/05/28 14:04:46;;;;;;;7.85;1.73;;;;;;;19.38;36.80;101697.69;5142704;27;20030;-75
2022/05/28 14:07:23;;;;;;;5.10;1.30;;;;;;;19.01;35.96;101704.09;5124068;27;20616;-75
2022/05/28 14:09:49;;;;;;;10.50;2.00;;;;;;;18.82;37.27;101705.53;5141739;27;20518;-75
2022/05/28 14:12:14;;;;;;;5.95;1.55;;;;;;;18.83;36.25;101704.53;5125401;27;20066;-75
2022/05/28 14:14:43;;;;;;;5.30;1.40;;;;;;;18.85;38.77;101705.16;5139987;27;20035;-76
2022/05/28 14:17:28;;;;;;;11.48;1.70;;;;;;;18.58;36.88;101696.19;5127464;27;20063;-75
2022/05/28 14:19:56;;;;;;;9.88;1.98;;;;;;;18.86;37.74;101698.91;5135932;27;20159;-75
2022/05/28 14:22:35;;;;;;;8.07;1.38;;;;;;;18.61;38.15;101699.25;5142679;27;20427;-76
2022/05/28 14:25:05;;;;;;;7.18;1.73;;;;;;;18.87;38.93;101705.75;5138489;27;20023;-75
2022/05/28 14:27:31;;;;;;;9.63;2.47;;;;;;;18.94;39.48;101701.38;5139582;27;20443;-75
2022/05/28 14:29:59;;;;;;;9.00;2.95;;;;;;;18.89;39.46;101695.88;5121556;27;20069;-76
2022/05/28 14:32:35;;;;;;;9.25;3.38;;;;;;;19.05;39.31;101697.44;5137754;27;20486;-76
2022/05/28 14:35:10;;;;;;;12.38;1.75;;;;;;;19.11;38.75;101696.66;5134412;27;20080;-76
2022/05/28 14:37:35;;;;;;;8.40;2.13;;;;;;;18.96;38.44;101694.13;5139250;27;20027;-76
2022/05/28 14:40:03;;;;;;;4.53;1.10;;;;;;;19.09;38.76;101690.00;5107261;27;20027;-76
2022/05/28 14:42:31;;;;;;;5.75;1.73;;;;;;;19.10;37.25;101684.53;5122912;27;20037;-76
2022/05/28 14:44:59;;;;;;;7.18;1.48;;;;;;;18.94;35.57;101683.00;5128003;27;20092;-75
2022/05/28 14:47:34;;;;;;;8.50;1.77;;;;;;;18.84;37.40;101693.03;5140625;27;20055;-76
2022/05/28 14:50:03;;;;;;;7.60;1.50;;;;;;;18.79;38.36;101688.28;5113055;27;20036;-75
2022/05/28 14:52:32;;;;;;;9.63;1.50;;;;;;;18.39;37.33;101685.28;5127395;27;20059;-75
2022/05/28 14:55:10;;;;;;;5.72;1.13;;;;;;;18.13;37.53;101685.00;5108534;27;20039;-75
2022/05/28 14:57:43;;;;;;;5.90;1.42;;;;;;;18.05;38.41;101697.22;5128635;27;20023;-76
2022/05/28 15:00:13;;;;;;;;;;;;;;;18.03;38.44;101695.81;5113763;27;20073;-75
2022/05/28 15:02:39;;;;;;;7.35;1.23;;;;;;;18.15;38.21;101690.88;5109864;27;19911;-76
2022/05/28 15:05:13;;;;;;;7.57;1.90;;;;;;;18.18;37.44;101688.72;5131116;27;20033;-76
2022/05/28 15:08:03;;;;;;;4.90;1.50;;;;;;;18.18;37.39;101687.91;5134701;27;20075;-76
2022/05/28 15:10:31;;;;;;;8.25;1.10;;;;;;;18.31;38.32;101687.22;5126584;27;20050;-75
2022/05/28 15:13:14;;;;;;;12.15;2.08;;;;;;;18.11;37.17;101690.44;5128947;27;20034;-76
2022/05/28 15:15:41;;;;;;;6.13;1.38;;;;;;;18.20;38.18;101688.53;5105785;27;20074;-76
2022/05/28 15:18:06;;;;;;;6.80;1.02;;;;;;;18.40;38.33;101679.06;5109220;27;20469;-74
2022/05/28 15:20:32;;;;;;;13.65;1.60;;;;;;;18.44;38.59;101682.09;5129709;27;20035;-75
2022/05/28 15:22:57;;;;;;;11.13;2.10;;;;;;;18.62;38.60;101685.09;5128625;27;20035;-76
2022/05/28 15:25:23;;;;;;;6.03;1.05;;;;;;;18.61;39.47;101678.25;5127352;27;20035;-75
2022/05/28 15:27:48;;;;;;;8.82;1.58;;;;;;;18.72;37.61;101674.28;5129610;27;20039;-75
2022/05/28 15:30:14;;;;;;;6.70;1.48;;;;;;;18.47;39.01;101666.78;5107333;27;20610;-76
2022/05/28 15:32:42;;;;;;;3.78;1.13;;;;;;;18.49;39.76;101664.78;5111468;27;20027;-76
2022/05/28 15:35:15;;;;;;;8.85;1.25;;;;;;;18.54;40.11;101671.31;5122431;27;20062;-76
2022/05/28 15:37:53;;;;;;;6.35;1.27;;;;;;;18.48;39.99;101670.25;5110471;27;20368;-76
2022/05/28 15:40:20;;;;;;;10.43;1.20;;;;;;;18.55;37.59;101667.66;5118776;27;20101;-76
2022/05/28 15:42:45;;;;;;;5.75;0.98;;;;;;;18.41;37.38;101674.59;5110505;27;20385;-76
2022/05/28 15:45:19;;;;;;;11.93;1.35;;;;;;;18.68;36.41;101665.16;5112838;27;20043;-76
2022/05/28 15:47:45;;;;;;;7.07;2.05;;;;;;;18.67;35.93;101668.81;5112565;27;20691;-76
2022/05/28 15:50:13;;;;;;;6.35;1.05;;;;;;;18.73;36.85;101673.28;5126553;27;20043;-75
2022/05/28 15:52:38;;;;;;;11.55;1.50;;;;;;;18.77;36.62;101661.41;5128982;27;20062;-76
2022/05/28 15:55:05;;;;;;;5.05;1.17;;;;;;;18.69;36.90;101664.16;5126540;27;20038;-75
2022/05/28 15:57:42;;;;;;;3.42;0.90;;;;;;;18.57;37.95;101658.63;5119921;27;20468;-76
2022/05/28 16:00:09;;;;;;;7.68;1.23;;;;;;;18.44;37.31;101664.56;5108503;27;20506;-76
2022/05/28 16:02:35;;;;;;;10.45;1.30;;;;;;;18.29;38.13;101658.53;5121047;27;20087;-76
2022/05/28 16:05:04;;;;;;;10.02;2.00;;;;;;;18.11;37.61;101663.38;5103066;27;20035;-76
2022/05/28 16:07:30;;;;;;;10.50;1.55;;;;;;;17.98;39.81;101677.97;5108675;27;20041;-76
2022/05/28 16:09:56;;;;;;;7.25;1.20;;;;;;;17.81;39.96;101669.47;5088691;27;20035;-76
2022/05/28 16:12:23;;;;;;;6.82;1.90;;;;;;;17.77;40.75;101667.41;5103854;27;20069;-76
2022/05/28 16:14:53;;;;;;;5.60;1.77;;;;;;;17.76;41.02;101669.19;5105210;27;20068;-75
2022/05/28 16:17:19;;;;;;;14.32;2.42;;;;;;;17.48;40.85;101671.66;5120253;27;20027;-76
2022/05/28 16:19:44;;;;;;;8.80;1.10;;;;;;;17.40;41.03;101661.25;5112060;27;20058;-76
2022/05/28 16:22:10;;;;;;;7.55;1.90;;;;;;;17.70;40.99;101664.66;5104797;27;20031;-76
2022/05/28 16:24:35;;;;;;;12.10;1.63;;;;;;;17.64;40.58;101663.59;5106775;27;20035;-76
2022/05/28 16:27:02;;;;;;;5.70;1.15;;;;;;;17.73;41.96;101661.69;5120953;27;20027;-76
2022/05/28 16:29:27;;;;;;;9.75;1.27;;;;;;;17.95;42.33;101661.78;5119072;27;20062;-76
2022/05/28 16:31:53;;;;;;;7.20;1.13;;;;;;;17.93;40.97;101664.59;5092071;27;20494;-75
2022/05/28 16:34:19;;;;;;;18.95;4.07;;;;;;;17.89;40.75;101655.44;5104467;27;20043;-76
2022/05/28 16:36:44;;;;;;;10.43;2.42;;;;;;;17.96;40.59;101653.72;5105401;27;20391;-75
2022/05/28 16:39:10;;;;;;;6.00;1.88;;;;;;;17.97;41.10;101651.91;5105692;27;20031;-75
2022/05/28 16:41:37;;;;;;;6.07;1.95;;;;;;;17.99;39.24;101649.91;5100390;27;20690;-76
2022/05/28 16:44:04;;;;;;;5.97;1.00;;;;;;;17.95;38.41;101641.63;5108407;27;20557;-75
2022/05/28 16:46:30;;;;;;;6.63;1.45;;;;;;;18.05;37.30;101643.94;5106671;27;20035;-75
2022/05/28 16:48:57;;;;;;;4.78;1.02;;;;;;;18.14;38.66;101634.97;5098182;27;20072;-74
2022/05/28 16:51:24;;;;;;;11.38;2.42;;;;;;;18.02;39.13;101637.25;5118350;27;20042;-75
2022/05/28 16:53:50;;;;;;;12.73;1.58;;;;;;;18.01;38.32;101647.94;5126794;27;20103;-75
2022/05/28 16:56:22;;;;;;;8.38;1.70;;;;;;;17.64;38.15;101644.44;5120319;27;20118;-75
2022/05/28 16:58:48;;;;;;;6.25;1.23;;;;;;;17.57;38.81;101639.09;5120380;27;20161;-75
2022/05/28 17:01:14;;;;;;;8.88;1.40;;;;;;;17.55;39.60;101637.66;5117955;27;20122;-75
2022/05/28 17:03:40;;;;;;;6.22;1.33;;;;;;;17.47;39.71;101642.00;5106188;27;20109;-75
2022/05/28 17:06:06;;;;;;;9.23;1.35;;;;;;;17.46;40.81;101642.16;5124481;27;20475;-75
2022/05/28 17:08:32;;;;;;;8.27;1.80;;;;;;;17.52;41.38;101639.66;5134890;27;20032;-75
2022/05/28 17:10:58;;;;;;;6.95;1.10;;;;;;;17.41;41.73;101634.84;5122966;27;20043;-76
2022/05/28 17:13:26;;;;;;;8.68;1.70;;;;;;;17.22;40.89;101633.59;5100324;27;20039;-75
2022/05/28 17:15:52;;;;;;;8.48;1.85;;;;;;;17.31;40.97;101635.13;5112112;27;20159;-76
2022/05/28 17:18:18;;;;;;;5.68;1.17;;;;;;;17.38;41.42;101635.22;5104868;27;20034;-75
2022/05/28 17:20:44;;;;;;;7.00;0.93;;;;;;;17.26;40.63;101629.59;5114007;27;20064;-76
2022/05/28 17:23:11;;;;;;;12.48;1.52;;;;;;;17.19;40.85;101630.50;5123866;27;20547;-75
2022/05/28 17:25:37;;;;;;;10.57;1.88;;;;;;;17.02;40.38;101627.22;5120901;27;20059;-75
2022/05/28 17:28:03;;;;;;;5.85;1.63;;;;;;;16.90;40.58;101630.28;5108688;27;20084;-76
2022/05/28 17:30:32;;;;;;;9.52;1.13;;;;;;;16.76;41.36;101636.25;5096816;28;20058;-75
2022/05/28 17:32:59;;;;;;;8.93;1.50;;;;;;;16.65;42.18;101641.91;5107065;27;20035;-75
2022/05/28 17:35:28;;;;;;;9.60;1.63;;;;;;;16.51;42.92;101639.06;5104867;28;20035;-75
2022/05/28 17:37:53;;;;;;;9.07;1.48;;;;;;;16.36;42.81;101638.19;5120283;27;20034;-75
2022/05/28 17:40:19;;;;;;;11.80;1.17;;;;;;;16.11;43.56;101642.78;5103560;28;20430;-76
2022/05/28 17:42:46;;;;;;;6.07;1.38;;;;;;;16.05;44.42;101643.44;5121333;27;20477;-76
2022/05/28 17:45:13;;;;;;;12.68;1.60;;;;;;;15.91;44.60;101647.59;5121672;27;20039;-75
2022/05/28 17:47:42;;;;;;;5.47;1.20;;;;;;;15.99;45.32;101647.56;5104266;27;20103;-75
2022/05/28 17:50:09;;;;;;;8.05;1.42;;;;;;;15.86;45.04;101650.75;5117729;27;20046;-75
2022/05/28 17:52:36;;;;;;;6.88;1.42;;;;;;;15.75;45.18;101649.31;5121159;27;20062;-75
2022/05/28 17:55:03;;;;;;;12.00;1.70;;;;;;;15.46;45.14;101643.81;5102758;27;20487;-75
2022/05/28 17:57:29;;;;;;;12.77;1.73;;;;;;;15.40;45.60;101647.09;5122648;27;20027;-75
2022/05/28 17:59:54;;;;;;;10.23;1.42;;;;;;;15.50;45.83;101645.94;5108866;27;20491;-75
2022/05/28 18:02:27;;;;;;;17.63;2.45;;;;;;;15.33;45.85;101646.94;5124902;27;20455;-75
2022/05/28 18:04:55;;;;;;;11.88;1.50;;;;;;;15.33;45.99;101644.31;5105205;27;20076;-75
2022/05/28 18:07:22;;;;;;;10.80;2.17;;;;;;;15.43;47.22;101649.41;5131420;27;20027;-75
2022/05/28 18:09:48;;;;;;;6.05;1.48;;;;;;;15.29;47.61;101646.44;5127855;27;20657;-75
2022/05/28 18:12:14;;;;;;;9.63;1.20;;;;;;;15.24;47.67;101645.31;5123234;27;20150;-76
2022/05/28 18:14:39;;;;;;;7.05;1.42;;;;;;;15.17;47.59;101651.22;5125508;27;20031;-75
2022/05/28 18:17:05;;;;;;;12.95;1.85;;;;;;;15.19;48.11;101651.88;5101335;27;20699;-75
2022/05/28 18:19:33;;;;;;;11.90;1.35;;;;;;;15.26;47.75;101649.41;5126952;27;20035;-75
2022/05/28 18:22:01;;;;;;;7.97;1.30;;;;;;;15.14;47.41;101648.13;5125217;27;20065;-75
2022/05/28 18:24:35;;;;;;;8.48;1.33;;;;;;;15.13;48.44;101642.09;5129044;27;20042;-75
2022/05/28 18:27:03;;;;;;;7.30;1.52;;;;;;;14.98;47.88;101648.97;5127686;27;20666;-75
2022/05/28 18:29:29;;;;;;;10.48;1.50;;;;;;;14.95;49.25;101652.69;5132406;27;20122;-76
2022/05/28 18:31:55;;;;;;;8.90;1.50;;;;;;;15.01;48.87;101648.63;5113715;27;20038;-75
2022/05/28 18:34:20;;;;;;;9.18;1.15;;;;;;;14.90;48.32;101641.13;5127771;27;20027;-75
2022/05/28 18:36:46;;;;;;;11.32;1.63;;;;;;;14.85;48.47;101635.59;5123739;27;20042;-75
2022/05/28 18:39:21;;;;;;;13.05;1.60;;;;;;;14.86;48.93;101635.44;5113816;27;20088;-75
2022/05/28 18:41:47;;;;;;;12.70;1.67;;;;;;;14.73;49.23;101635.91;5114426;27;20087;-75